sensor_id;sensor_type;location;lat;lon;timestamp;P1;durP1;ratioP1;P2;durP2;ratioP2
17347;SDS011;8791;50.876;4.342;2022-07-29T00:00:38;8.52;;;2.20;;
17347;SDS011;8791;50.876;4.342;2022-07-29T00:03:05;4.45;;;1.50;;
17347;SDS011;8791;50.876;4.342;2022-07-29T00:05:32;3.85;;;1.50;;
17347;SDS011;8791;50.876;4.342;2022-07-29T00:07:59;4.30;;;1.45;;
17347;SDS011;8791;50.876;4.342;2022-07-29T00:10:26;4.25;;;1.65;;
17347;SDS011;8791;50.876;4.342;2022-07-29T00:12:53;4.93;;;1.80;;
17347;SDS011;8791;50.876;4.342;2022-07-29T00:15:19;4.13;;;1.35;;
17347;SDS011;8791;50.876;4.342;2022-07-29T00:17:48;2.00;;;1.33;;
17347;SDS011;8791;50.876;4.342;2022-07-29T00:20:14;6.25;;;1.13;;
17347;SDS011;8791;50.876;4.342;2022-07-29T00:22:41;4.88;;;1.50;;
17347;SDS011;8791;50.876;4.342;2022-07-29T00:25:08;5.72;;;1.38;;
17347;SDS011;8791;50.876;4.342;2022-07-29T00:27:35;2.35;;;1.70;;
17347;SDS011;8791;50.876;4.342;2022-07-29T00:30:02;3.58;;;1.40;;
17347;SDS011;8791;50.876;4.342;2022-07-29T00:32:30;9.77;;;1.70;;
17347;SDS011;8791;50.876;4.342;2022-07-29T00:34:58;2.33;;;1.40;;
17347;SDS011;8791;50.876;4.342;2022-07-29T00:37:43;4.97;;;1.42;;
17347;SDS011;8791;50.876;4.342;2022-07-29T00:40:10;8.30;;;1.65;;
17347;SDS011;8791;50.876;4.342;2022-07-29T00:42:43;4.93;;;1.27;;
17347;SDS011;8791;50.876;4.342;2022-07-29T00:45:11;7.20;;;1.65;;
17347;SDS011;8791;50.876;4.342;2022-07-29T00:47:39;5.45;;;1.50;;
17347;SDS011;8791;50.876;4.342;2022-07-29T00:50:11;3.53;;;1.60;;
17347;SDS011;8791;50.876;4.342;2022-07-29T00:52:39;3.47;;;1.95;;
17347;SDS011;8791;50.876;4.342;2022-07-29T00:55:08;4.28;;;1.75;;
17347;SDS011;8791;50.876;4.342;2022-07-29T00:57:36;2.00;;;1.52;;
17347;SDS011;8791;50.876;4.342;2022-07-29T01:00:04;4.82;;;1.33;;
17347;SDS011;8791;50.876;4.342;2022-07-29T01:02:33;6.25;;;1.67;;
17347;SDS011;8791;50.876;4.342;2022-07-29T01:05:00;7.28;;;1.67;;
17347;SDS011;8791;50.876;4.342;2022-07-29T01:07:28;4.32;;;1.30;;
17347;SDS011;8791;50.876;4.342;2022-07-29T01:09:56;5.35;;;1.48;;
17347;SDS011;8791;50.876;4.342;2022-07-29T01:12:24;5.68;;;1.55;;
17347;SDS011;8791;50.876;4.342;2022-07-29T01:14:53;5.35;;;1.42;;
17347;SDS011;8791;50.876;4.342;2022-07-29T01:17:22;5.22;;;1.35;;
17347;SDS011;8791;50.876;4.342;2022-07-29T01:19:53;4.13;;;1.58;;
17347;SDS011;8791;50.876;4.342;2022-07-29T01:22:36;3.90;;;1.40;;
17347;SDS011;8791;50.876;4.342;2022-07-29T01:25:29;3.33;;;1.45;;
17347;SDS011;8791;50.876;4.342;2022-07-29T01:28:19;3.45;;;1.58;;
17347;SDS011;8791;50.876;4.342;2022-07-29T01:31:19;4.80;;;1.20;;
17347;SDS011;8791;50.876;4.342;2022-07-29T01:33:58;6.13;;;1.70;;
17347;SDS011;8791;50.876;4.342;2022-07-29T01:36:31;2.17;;;1.10;;
17347;SDS011;8791;50.876;4.342;2022-07-29T01:39:03;2.50;;;1.50;;
17347;SDS011;8791;50.876;4.342;2022-07-29T01:41:38;6.90;;;1.50;;
17347;SDS011;8791;50.876;4.342;2022-07-29T01:44:13;9.90;;;1.80;;
17347;SDS011;8791;50.876;4.342;2022-07-29T01:46:48;3.80;;;1.50;;
17347;SDS011;8791;50.876;4.342;2022-07-29T01:49:20;2.63;;;1.50;;
17347;SDS011;8791;50.876;4.342;2022-07-29T01:51:50;12.65;;;1.50;;
17347;SDS011;8791;50.876;4.342;2022-07-29T01:54:21;4.60;;;1.30;;
17347;SDS011;8791;50.876;4.342;2022-07-29T01:56:55;2.88;;;1.48;;
17347;SDS011;8791;50.876;4.342;2022-07-29T01:59:24;2.58;;;1.25;;
17347;SDS011;8791;50.876;4.342;2022-07-29T02:01:54;9.95;;;2.03;;
17347;SDS011;8791;50.876;4.342;2022-07-29T02:04:23;1.73;;;1.08;;
17347;SDS011;8791;50.876;4.342;2022-07-29T02:06:52;3.92;;;1.77;;
17347;SDS011;8791;50.876;4.342;2022-07-29T02:09:20;3.55;;;1.25;;
17347;SDS011;8791;50.876;4.342;2022-07-29T02:11:50;4.97;;;1.40;;
17347;SDS011;8791;50.876;4.342;2022-07-29T02:14:20;4.40;;;1.55;;
17347;SDS011;8791;50.876;4.342;2022-07-29T02:16:50;6.70;;;1.48;;
17347;SDS011;8791;50.876;4.342;2022-07-29T02:19:21;3.45;;;1.55;;
17347;SDS011;8791;50.876;4.342;2022-07-29T02:21:52;3.70;;;1.48;;
17347;SDS011;8791;50.876;4.342;2022-07-29T02:24:20;2.80;;;1.42;;
17347;SDS011;8791;50.876;4.342;2022-07-29T02:26:49;3.40;;;1.67;;
17347;SDS011;8791;50.876;4.342;2022-07-29T02:29:18;7.07;;;1.70;;
17347;SDS011;8791;50.876;4.342;2022-07-29T02:31:48;6.43;;;1.80;;
17347;SDS011;8791;50.876;4.342;2022-07-29T02:34:17;4.35;;;1.60;;
17347;SDS011;8791;50.876;4.342;2022-07-29T02:36:47;2.75;;;1.33;;
17347;SDS011;8791;50.876;4.342;2022-07-29T02:39:15;2.20;;;1.48;;
17347;SDS011;8791;50.876;4.342;2022-07-29T02:41:44;1.85;;;1.42;;
17347;SDS011;8791;50.876;4.342;2022-07-29T02:44:14;3.40;;;1.50;;
17347;SDS011;8791;50.876;4.342;2022-07-29T02:46:43;1.83;;;1.50;;
17347;SDS011;8791;50.876;4.342;2022-07-29T02:49:15;6.00;;;1.77;;
17347;SDS011;8791;50.876;4.342;2022-07-29T02:51:53;3.40;;;1.70;;
17347;SDS011;8791;50.876;4.342;2022-07-29T02:54:31;3.05;;;1.65;;
17347;SDS011;8791;50.876;4.342;2022-07-29T02:57:06;4.32;;;1.40;;
17347;SDS011;8791;50.876;4.342;2022-07-29T02:59:37;1.67;;;1.25;;
17347;SDS011;8791;50.876;4.342;2022-07-29T03:02:08;3.80;;;1.80;;
17347;SDS011;8791;50.876;4.342;2022-07-29T03:04:35;4.68;;;1.63;;
17347;SDS011;8791;50.876;4.342;2022-07-29T03:07:07;5.38;;;1.77;;
17347;SDS011;8791;50.876;4.342;2022-07-29T03:09:36;3.78;;;1.88;;
17347;SDS011;8791;50.876;4.342;2022-07-29T03:12:04;4.38;;;1.80;;
17347;SDS011;8791;50.876;4.342;2022-07-29T03:14:32;6.22;;;1.90;;
17347;SDS011;8791;50.876;4.342;2022-07-29T03:16:59;9.48;;;1.60;;
17347;SDS011;8791;50.876;4.342;2022-07-29T03:19:26;3.85;;;1.52;;
17347;SDS011;8791;50.876;4.342;2022-07-29T03:21:55;8.02;;;2.13;;
17347;SDS011;8791;50.876;4.342;2022-07-29T03:24:28;3.60;;;1.70;;
17347;SDS011;8791;50.876;4.342;2022-07-29T03:26:56;8.48;;;2.10;;
17347;SDS011;8791;50.876;4.342;2022-07-29T03:29:23;4.82;;;1.75;;
17347;SDS011;8791;50.876;4.342;2022-07-29T03:31:51;6.88;;;1.77;;
17347;SDS011;8791;50.876;4.342;2022-07-29T03:34:18;3.38;;;1.75;;
17347;SDS011;8791;50.876;4.342;2022-07-29T03:36:45;9.15;;;2.30;;
17347;SDS011;8791;50.876;4.342;2022-07-29T03:39:13;7.25;;;2.22;;
17347;SDS011;8791;50.876;4.342;2022-07-29T03:41:48;8.05;;;1.70;;
17347;SDS011;8791;50.876;4.342;2022-07-29T03:44:18;3.38;;;2.00;;
17347;SDS011;8791;50.876;4.342;2022-07-29T03:46:46;7.70;;;2.33;;
17347;SDS011;8791;50.876;4.342;2022-07-29T03:49:16;4.75;;;2.28;;
17347;SDS011;8791;50.876;4.342;2022-07-29T03:51:45;6.43;;;1.93;;
17347;SDS011;8791;50.876;4.342;2022-07-29T03:54:12;1.90;;;1.70;;
17347;SDS011;8791;50.876;4.342;2022-07-29T03:56:40;6.18;;;2.33;;
17347;SDS011;8791;50.876;4.342;2022-07-29T03:59:12;4.53;;;2.40;;
17347;SDS011;8791;50.876;4.342;2022-07-29T04:01:40;8.82;;;2.17;;
17347;SDS011;8791;50.876;4.342;2022-07-29T04:04:08;8.00;;;1.98;;
17347;SDS011;8791;50.876;4.342;2022-07-29T04:06:39;2.70;;;2.13;;
17347;SDS011;8791;50.876;4.342;2022-07-29T04:09:06;7.10;;;2.27;;
17347;SDS011;8791;50.876;4.342;2022-07-29T04:11:33;3.97;;;2.13;;
17347;SDS011;8791;50.876;4.342;2022-07-29T04:14:00;7.53;;;2.60;;
17347;SDS011;8791;50.876;4.342;2022-07-29T04:16:28;5.33;;;2.70;;
17347;SDS011;8791;50.876;4.342;2022-07-29T04:18:55;4.07;;;2.37;;
17347;SDS011;8791;50.876;4.342;2022-07-29T04:21:22;6.97;;;2.25;;
17347;SDS011;8791;50.876;4.342;2022-07-29T04:23:49;4.07;;;2.25;;
17347;SDS011;8791;50.876;4.342;2022-07-29T04:26:16;3.42;;;2.50;;
17347;SDS011;8791;50.876;4.342;2022-07-29T04:28:44;5.80;;;2.22;;
17347;SDS011;8791;50.876;4.342;2022-07-29T04:31:12;3.63;;;2.10;;
17347;SDS011;8791;50.876;4.342;2022-07-29T04:33:40;2.67;;;2.20;;
17347;SDS011;8791;50.876;4.342;2022-07-29T04:36:07;5.22;;;2.75;;
17347;SDS011;8791;50.876;4.342;2022-07-29T04:38:35;4.05;;;2.28;;
17347;SDS011;8791;50.876;4.342;2022-07-29T04:41:03;5.63;;;1.98;;
17347;SDS011;8791;50.876;4.342;2022-07-29T04:43:29;3.13;;;2.17;;
17347;SDS011;8791;50.876;4.342;2022-07-29T04:45:56;4.60;;;2.38;;
17347;SDS011;8791;50.876;4.342;2022-07-29T04:48:23;6.22;;;2.33;;
17347;SDS011;8791;50.876;4.342;2022-07-29T04:50:51;4.70;;;2.28;;
17347;SDS011;8791;50.876;4.342;2022-07-29T04:53:18;2.40;;;1.88;;
17347;SDS011;8791;50.876;4.342;2022-07-29T04:55:45;5.25;;;2.15;;
17347;SDS011;8791;50.876;4.342;2022-07-29T04:58:12;8.13;;;2.17;;
17347;SDS011;8791;50.876;4.342;2022-07-29T05:00:39;3.60;;;2.35;;
17347;SDS011;8791;50.876;4.342;2022-07-29T05:03:06;3.90;;;1.80;;
17347;SDS011;8791;50.876;4.342;2022-07-29T05:05:33;3.13;;;2.05;;
17347;SDS011;8791;50.876;4.342;2022-07-29T05:08:01;4.28;;;2.10;;
17347;SDS011;8791;50.876;4.342;2022-07-29T05:10:28;8.80;;;2.08;;
17347;SDS011;8791;50.876;4.342;2022-07-29T05:12:55;6.15;;;2.45;;
17347;SDS011;8791;50.876;4.342;2022-07-29T05:15:22;3.00;;;1.85;;
17347;SDS011;8791;50.876;4.342;2022-07-29T05:17:49;4.95;;;1.98;;
17347;SDS011;8791;50.876;4.342;2022-07-29T05:20:16;3.22;;;2.30;;
17347;SDS011;8791;50.876;4.342;2022-07-29T05:22:43;3.67;;;2.10;;
17347;SDS011;8791;50.876;4.342;2022-07-29T05:25:11;6.90;;;2.20;;
17347;SDS011;8791;50.876;4.342;2022-07-29T05:27:38;6.72;;;2.35;;
17347;SDS011;8791;50.876;4.342;2022-07-29T05:30:05;4.80;;;2.15;;
17347;SDS011;8791;50.876;4.342;2022-07-29T05:32:33;3.47;;;2.22;;
17347;SDS011;8791;50.876;4.342;2022-07-29T05:35:00;6.25;;;2.45;;
17347;SDS011;8791;50.876;4.342;2022-07-29T05:37:27;5.82;;;2.25;;
17347;SDS011;8791;50.876;4.342;2022-07-29T05:39:53;5.72;;;2.90;;
17347;SDS011;8791;50.876;4.342;2022-07-29T05:42:22;8.55;;;2.53;;
17347;SDS011;8791;50.876;4.342;2022-07-29T05:44:49;9.40;;;2.67;;
17347;SDS011;8791;50.876;4.342;2022-07-29T05:47:16;7.50;;;2.28;;
17347;SDS011;8791;50.876;4.342;2022-07-29T05:49:42;9.82;;;2.13;;
17347;SDS011;8791;50.876;4.342;2022-07-29T05:52:09;4.07;;;2.40;;
17347;SDS011;8791;50.876;4.342;2022-07-29T05:54:38;4.93;;;2.50;;
17347;SDS011;8791;50.876;4.342;2022-07-29T05:57:05;8.30;;;2.45;;
17347;SDS011;8791;50.876;4.342;2022-07-29T05:59:36;8.35;;;3.08;;
17347;SDS011;8791;50.876;4.342;2022-07-29T06:02:04;10.85;;;2.53;;
17347;SDS011;8791;50.876;4.342;2022-07-29T06:04:31;4.85;;;2.35;;
17347;SDS011;8791;50.876;4.342;2022-07-29T06:06:58;5.40;;;2.67;;
17347;SDS011;8791;50.876;4.342;2022-07-29T06:09:25;13.45;;;3.15;;
17347;SDS011;8791;50.876;4.342;2022-07-29T06:11:52;9.07;;;2.67;;
17347;SDS011;8791;50.876;4.342;2022-07-29T06:14:19;6.80;;;3.08;;
17347;SDS011;8791;50.876;4.342;2022-07-29T06:16:48;6.22;;;3.10;;
17347;SDS011;8791;50.876;4.342;2022-07-29T06:19:15;8.65;;;2.90;;
17347;SDS011;8791;50.876;4.342;2022-07-29T06:21:41;4.97;;;2.80;;
17347;SDS011;8791;50.876;4.342;2022-07-29T06:24:10;4.22;;;2.50;;
17347;SDS011;8791;50.876;4.342;2022-07-29T06:26:37;5.72;;;2.78;;
17347;SDS011;8791;50.876;4.342;2022-07-29T06:29:04;5.93;;;3.08;;
17347;SDS011;8791;50.876;4.342;2022-07-29T06:31:31;7.85;;;3.20;;
17347;SDS011;8791;50.876;4.342;2022-07-29T06:33:59;6.65;;;3.08;;
17347;SDS011;8791;50.876;4.342;2022-07-29T06:36:26;6.80;;;3.03;;
17347;SDS011;8791;50.876;4.342;2022-07-29T06:38:53;6.65;;;2.78;;
17347;SDS011;8791;50.876;4.342;2022-07-29T06:41:20;4.78;;;2.83;;
17347;SDS011;8791;50.876;4.342;2022-07-29T06:43:48;10.75;;;2.80;;
17347;SDS011;8791;50.876;4.342;2022-07-29T06:46:16;7.05;;;2.80;;
17347;SDS011;8791;50.876;4.342;2022-07-29T06:48:45;10.10;;;2.67;;
17347;SDS011;8791;50.876;4.342;2022-07-29T06:51:14;7.03;;;3.17;;
17347;SDS011;8791;50.876;4.342;2022-07-29T06:53:41;15.25;;;3.33;;
17347;SDS011;8791;50.876;4.342;2022-07-29T06:56:08;4.10;;;2.63;;
17347;SDS011;8791;50.876;4.342;2022-07-29T06:58:37;3.55;;;2.45;;
17347;SDS011;8791;50.876;4.342;2022-07-29T07:01:05;4.80;;;3.00;;
17347;SDS011;8791;50.876;4.342;2022-07-29T07:03:32;8.35;;;3.05;;
17347;SDS011;8791;50.876;4.342;2022-07-29T07:05:59;6.45;;;3.33;;
17347;SDS011;8791;50.876;4.342;2022-07-29T07:08:27;9.48;;;3.08;;
17347;SDS011;8791;50.876;4.342;2022-07-29T07:10:54;5.40;;;2.60;;
17347;SDS011;8791;50.876;4.342;2022-07-29T07:13:22;10.25;;;3.08;;
17347;SDS011;8791;50.876;4.342;2022-07-29T07:15:49;7.00;;;2.97;;
17347;SDS011;8791;50.876;4.342;2022-07-29T07:18:17;3.63;;;2.78;;
17347;SDS011;8791;50.876;4.342;2022-07-29T07:20:44;3.35;;;2.92;;
17347;SDS011;8791;50.876;4.342;2022-07-29T07:23:12;13.48;;;3.22;;
17347;SDS011;8791;50.876;4.342;2022-07-29T07:25:40;6.50;;;3.15;;
17347;SDS011;8791;50.876;4.342;2022-07-29T07:28:08;4.43;;;2.42;;
17347;SDS011;8791;50.876;4.342;2022-07-29T07:30:34;4.95;;;2.47;;
17347;SDS011;8791;50.876;4.342;2022-07-29T07:33:01;9.18;;;2.75;;
17347;SDS011;8791;50.876;4.342;2022-07-29T07:35:28;6.40;;;2.60;;
17347;SDS011;8791;50.876;4.342;2022-07-29T07:37:55;4.90;;;2.50;;
17347;SDS011;8791;50.876;4.342;2022-07-29T07:40:23;5.90;;;2.63;;
17347;SDS011;8791;50.876;4.342;2022-07-29T07:42:52;8.15;;;2.75;;
17347;SDS011;8791;50.876;4.342;2022-07-29T07:45:18;4.75;;;2.60;;
17347;SDS011;8791;50.876;4.342;2022-07-29T07:47:45;4.35;;;2.75;;
17347;SDS011;8791;50.876;4.342;2022-07-29T07:50:12;5.85;;;2.53;;
17347;SDS011;8791;50.876;4.342;2022-07-29T07:52:46;3.85;;;2.80;;
17347;SDS011;8791;50.876;4.342;2022-07-29T07:55:14;3.10;;;2.80;;
17347;SDS011;8791;50.876;4.342;2022-07-29T07:57:41;7.20;;;2.78;;
17347;SDS011;8791;50.876;4.342;2022-07-29T08:00:11;6.55;;;2.88;;
17347;SDS011;8791;50.876;4.342;2022-07-29T08:02:38;4.82;;;2.88;;
17347;SDS011;8791;50.876;4.342;2022-07-29T08:05:07;13.88;;;2.53;;
17347;SDS011;8791;50.876;4.342;2022-07-29T08:07:35;3.22;;;2.20;;
17347;SDS011;8791;50.876;4.342;2022-07-29T08:10:03;6.78;;;2.97;;
17347;SDS011;8791;50.876;4.342;2022-07-29T08:12:30;7.15;;;2.65;;
17347;SDS011;8791;50.876;4.342;2022-07-29T08:14:57;5.35;;;2.90;;
17347;SDS011;8791;50.876;4.342;2022-07-29T08:17:26;6.10;;;2.40;;
17347;SDS011;8791;50.876;4.342;2022-07-29T08:19:53;4.82;;;2.22;;
17347;SDS011;8791;50.876;4.342;2022-07-29T08:22:20;8.18;;;2.60;;
17347;SDS011;8791;50.876;4.342;2022-07-29T08:24:47;3.80;;;2.50;;
17347;SDS011;8791;50.876;4.342;2022-07-29T08:27:19;3.72;;;2.25;;
17347;SDS011;8791;50.876;4.342;2022-07-29T08:29:46;3.72;;;2.30;;
17347;SDS011;8791;50.876;4.342;2022-07-29T08:32:14;2.63;;;1.85;;
17347;SDS011;8791;50.876;4.342;2022-07-29T08:34:42;5.70;;;2.55;;
17347;SDS011;8791;50.876;4.342;2022-07-29T08:37:11;4.95;;;2.33;;
17347;SDS011;8791;50.876;4.342;2022-07-29T08:39:38;2.72;;;2.00;;
17347;SDS011;8791;50.876;4.342;2022-07-29T08:42:05;4.70;;;1.83;;
17347;SDS011;8791;50.876;4.342;2022-07-29T08:44:33;6.03;;;2.17;;
17347;SDS011;8791;50.876;4.342;2022-07-29T08:47:00;6.10;;;2.20;;
17347;SDS011;8791;50.876;4.342;2022-07-29T08:49:27;8.48;;;2.33;;
17347;SDS011;8791;50.876;4.342;2022-07-29T08:51:56;3.70;;;1.90;;
17347;SDS011;8791;50.876;4.342;2022-07-29T08:54:24;9.27;;;2.42;;
17347;SDS011;8791;50.876;4.342;2022-07-29T08:56:51;11.35;;;2.65;;
17347;SDS011;8791;50.876;4.342;2022-07-29T08:59:19;6.38;;;3.03;;
17347;SDS011;8791;50.876;4.342;2022-07-29T09:01:48;4.30;;;2.50;;
17347;SDS011;8791;50.876;4.342;2022-07-29T09:04:18;4.63;;;2.22;;
17347;SDS011;8791;50.876;4.342;2022-07-29T09:06:47;7.40;;;2.05;;
17347;SDS011;8791;50.876;4.342;2022-07-29T09:09:16;5.88;;;2.30;;
17347;SDS011;8791;50.876;4.342;2022-07-29T09:11:43;5.00;;;2.28;;
17347;SDS011;8791;50.876;4.342;2022-07-29T09:14:11;6.85;;;2.22;;
17347;SDS011;8791;50.876;4.342;2022-07-29T09:16:49;7.68;;;2.45;;
17347;SDS011;8791;50.876;4.342;2022-07-29T09:19:21;7.25;;;2.45;;
17347;SDS011;8791;50.876;4.342;2022-07-29T09:21:49;5.20;;;2.38;;
17347;SDS011;8791;50.876;4.342;2022-07-29T09:24:37;5.45;;;2.40;;
17347;SDS011;8791;50.876;4.342;2022-07-29T09:27:17;8.77;;;2.17;;
17347;SDS011;8791;50.876;4.342;2022-07-29T09:29:46;9.57;;;2.35;;
17347;SDS011;8791;50.876;4.342;2022-07-29T09:32:13;5.38;;;2.22;;
17347;SDS011;8791;50.876;4.342;2022-07-29T09:34:40;10.48;;;2.38;;
17347;SDS011;8791;50.876;4.342;2022-07-29T09:37:07;4.28;;;2.15;;
17347;SDS011;8791;50.876;4.342;2022-07-29T09:39:34;5.35;;;2.17;;
17347;SDS011;8791;50.876;4.342;2022-07-29T09:42:09;4.22;;;1.85;;
17347;SDS011;8791;50.876;4.342;2022-07-29T09:44:43;3.33;;;2.10;;
17347;SDS011;8791;50.876;4.342;2022-07-29T09:47:13;3.40;;;1.50;;
17347;SDS011;8791;50.876;4.342;2022-07-29T09:49:50;4.28;;;2.00;;
17347;SDS011;8791;50.876;4.342;2022-07-29T09:52:18;7.20;;;2.08;;
17347;SDS011;8791;50.876;4.342;2022-07-29T09:54:47;9.13;;;2.17;;
17347;SDS011;8791;50.876;4.342;2022-07-29T09:57:22;3.45;;;2.05;;
17347;SDS011;8791;50.876;4.342;2022-07-29T09:59:58;3.85;;;2.00;;
17347;SDS011;8791;50.876;4.342;2022-07-29T10:02:30;5.03;;;2.35;;
17347;SDS011;8791;50.876;4.342;2022-07-29T10:04:58;6.03;;;1.85;;
17347;SDS011;8791;50.876;4.342;2022-07-29T10:07:25;9.98;;;2.00;;
17347;SDS011;8791;50.876;4.342;2022-07-29T10:09:55;4.60;;;2.05;;
17347;SDS011;8791;50.876;4.342;2022-07-29T10:12:23;3.33;;;1.90;;
17347;SDS011;8791;50.876;4.342;2022-07-29T10:14:50;24.88;;;3.65;;
17347;SDS011;8791;50.876;4.342;2022-07-29T10:17:18;5.47;;;1.92;;
17347;SDS011;8791;50.876;4.342;2022-07-29T10:19:45;6.40;;;2.05;;
17347;SDS011;8791;50.876;4.342;2022-07-29T10:22:13;6.07;;;1.50;;
17347;SDS011;8791;50.876;4.342;2022-07-29T10:24:40;3.45;;;1.60;;
17347;SDS011;8791;50.876;4.342;2022-07-29T10:27:09;6.43;;;1.85;;
17347;SDS011;8791;50.876;4.342;2022-07-29T10:29:35;5.15;;;1.80;;
17347;SDS011;8791;50.876;4.342;2022-07-29T10:32:11;3.50;;;1.95;;
17347;SDS011;8791;50.876;4.342;2022-07-29T10:34:54;6.88;;;2.65;;
17347;SDS011;8791;50.876;4.342;2022-07-29T10:37:28;6.05;;;2.30;;
17347;SDS011;8791;50.876;4.342;2022-07-29T10:40:11;8.40;;;2.22;;
17347;SDS011;8791;50.876;4.342;2022-07-29T10:43:09;6.07;;;2.03;;
17347;SDS011;8791;50.876;4.342;2022-07-29T10:45:44;4.88;;;2.33;;
17347;SDS011;8791;50.876;4.342;2022-07-29T10:48:12;6.28;;;2.30;;
17347;SDS011;8791;50.876;4.342;2022-07-29T10:50:55;8.43;;;2.97;;
17347;SDS011;8791;50.876;4.342;2022-07-29T10:53:24;6.03;;;2.00;;
17347;SDS011;8791;50.876;4.342;2022-07-29T10:56:22;8.45;;;2.78;;
17347;SDS011;8791;50.876;4.342;2022-07-29T11:01:53;4.40;;;1.92;;
17347;SDS011;8791;50.876;4.342;2022-07-29T11:07:22;5.72;;;2.08;;
17347;SDS011;8791;50.876;4.342;2022-07-29T11:12:46;3.95;;;2.40;;
17347;SDS011;8791;50.876;4.342;2022-07-29T11:15:15;12.90;;;2.85;;
17347;SDS011;8791;50.876;4.342;2022-07-29T11:20:35;3.03;;;1.95;;
17347;SDS011;8791;50.876;4.342;2022-07-29T11:26:13;8.25;;;3.30;;
17347;SDS011;8791;50.876;4.342;2022-07-29T11:28:57;4.45;;;2.95;;
17347;SDS011;8791;50.876;4.342;2022-07-29T11:31:38;5.28;;;2.30;;
17347;SDS011;8791;50.876;4.342;2022-07-29T11:34:21;3.65;;;2.13;;
17347;SDS011;8791;50.876;4.342;2022-07-29T11:39:47;5.00;;;2.63;;
17347;SDS011;8791;50.876;4.342;2022-07-29T11:42:42;5.85;;;2.90;;
17347;SDS011;8791;50.876;4.342;2022-07-29T11:45:11;10.57;;;2.40;;
17347;SDS011;8791;50.876;4.342;2022-07-29T11:47:41;8.65;;;2.00;;
17347;SDS011;8791;50.876;4.342;2022-07-29T11:50:14;3.30;;;1.98;;
17347;SDS011;8791;50.876;4.342;2022-07-29T11:52:43;7.38;;;2.80;;
17347;SDS011;8791;50.876;4.342;2022-07-29T11:55:13;6.70;;;3.30;;
17347;SDS011;8791;50.876;4.342;2022-07-29T11:57:45;7.32;;;2.70;;
17347;SDS011;8791;50.876;4.342;2022-07-29T12:00:20;8.35;;;3.38;;
17347;SDS011;8791;50.876;4.342;2022-07-29T12:02:50;6.57;;;3.05;;
17347;SDS011;8791;50.876;4.342;2022-07-29T12:05:17;6.53;;;3.15;;
17347;SDS011;8791;50.876;4.342;2022-07-29T12:07:45;5.35;;;2.60;;
17347;SDS011;8791;50.876;4.342;2022-07-29T12:10:13;7.03;;;2.53;;
17347;SDS011;8791;50.876;4.342;2022-07-29T12:12:40;6.35;;;2.78;;
17347;SDS011;8791;50.876;4.342;2022-07-29T12:15:10;3.95;;;2.63;;
17347;SDS011;8791;50.876;4.342;2022-07-29T12:17:39;3.13;;;2.53;;
17347;SDS011;8791;50.876;4.342;2022-07-29T12:20:07;8.68;;;3.08;;
17347;SDS011;8791;50.876;4.342;2022-07-29T12:22:35;8.27;;;2.80;;
17347;SDS011;8791;50.876;4.342;2022-07-29T12:25:05;6.03;;;2.28;;
17347;SDS011;8791;50.876;4.342;2022-07-29T12:27:34;9.57;;;2.40;;
17347;SDS011;8791;50.876;4.342;2022-07-29T12:30:03;5.63;;;2.20;;
17347;SDS011;8791;50.876;4.342;2022-07-29T12:32:31;9.93;;;2.75;;
17347;SDS011;8791;50.876;4.342;2022-07-29T12:34:59;10.02;;;3.00;;
17347;SDS011;8791;50.876;4.342;2022-07-29T12:37:30;10.35;;;3.03;;
17347;SDS011;8791;50.876;4.342;2022-07-29T12:39:58;5.90;;;3.05;;
17347;SDS011;8791;50.876;4.342;2022-07-29T12:42:25;7.00;;;2.20;;
17347;SDS011;8791;50.876;4.342;2022-07-29T12:44:52;3.40;;;2.10;;
17347;SDS011;8791;50.876;4.342;2022-07-29T12:47:20;3.97;;;2.10;;
17347;SDS011;8791;50.876;4.342;2022-07-29T12:49:47;6.25;;;2.40;;
17347;SDS011;8791;50.876;4.342;2022-07-29T12:52:28;2.78;;;1.85;;
17347;SDS011;8791;50.876;4.342;2022-07-29T12:54:57;6.00;;;1.90;;
17347;SDS011;8791;50.876;4.342;2022-07-29T12:57:25;5.57;;;1.92;;
17347;SDS011;8791;50.876;4.342;2022-07-29T13:00:03;3.83;;;1.92;;
17347;SDS011;8791;50.876;4.342;2022-07-29T13:02:35;4.45;;;2.22;;
17347;SDS011;8791;50.876;4.342;2022-07-29T13:05:02;5.65;;;2.30;;
17347;SDS011;8791;50.876;4.342;2022-07-29T13:07:31;7.20;;;2.15;;
17347;SDS011;8791;50.876;4.342;2022-07-29T13:10:11;6.30;;;1.75;;
17347;SDS011;8791;50.876;4.342;2022-07-29T13:15:29;10.07;;;2.00;;
17347;SDS011;8791;50.876;4.342;2022-07-29T13:17:57;8.45;;;1.80;;
17347;SDS011;8791;50.876;4.342;2022-07-29T13:20:24;6.22;;;1.80;;
17347;SDS011;8791;50.876;4.342;2022-07-29T13:22:54;9.55;;;2.50;;
17347;SDS011;8791;50.876;4.342;2022-07-29T13:25:26;7.93;;;2.30;;
17347;SDS011;8791;50.876;4.342;2022-07-29T13:27:54;6.75;;;1.90;;
17347;SDS011;8791;50.876;4.342;2022-07-29T13:30:21;7.65;;;1.58;;
17347;SDS011;8791;50.876;4.342;2022-07-29T13:32:49;8.85;;;2.15;;
17347;SDS011;8791;50.876;4.342;2022-07-29T13:35:16;9.93;;;2.67;;
17347;SDS011;8791;50.876;4.342;2022-07-29T13:37:44;6.57;;;2.20;;
17347;SDS011;8791;50.876;4.342;2022-07-29T13:40:11;5.45;;;1.83;;
17347;SDS011;8791;50.876;4.342;2022-07-29T13:42:40;2.22;;;1.48;;
17347;SDS011;8791;50.876;4.342;2022-07-29T13:45:09;7.00;;;1.65;;
17347;SDS011;8791;50.876;4.342;2022-07-29T13:47:37;9.57;;;1.77;;
17347;SDS011;8791;50.876;4.342;2022-07-29T13:50:05;4.22;;;1.67;;
17347;SDS011;8791;50.876;4.342;2022-07-29T13:52:35;3.00;;;1.73;;
17347;SDS011;8791;50.876;4.342;2022-07-29T13:55:02;10.88;;;1.80;;
17347;SDS011;8791;50.876;4.342;2022-07-29T13:57:30;4.35;;;1.33;;
17347;SDS011;8791;50.876;4.342;2022-07-29T13:59:58;4.45;;;1.98;;
17347;SDS011;8791;50.876;4.342;2022-07-29T14:02:26;7.45;;;1.88;;
17347;SDS011;8791;50.876;4.342;2022-07-29T14:04:53;3.38;;;1.85;;
17347;SDS011;8791;50.876;4.342;2022-07-29T14:07:20;4.82;;;1.50;;
17347;SDS011;8791;50.876;4.342;2022-07-29T14:09:47;4.25;;;1.50;;
17347;SDS011;8791;50.876;4.342;2022-07-29T14:12:15;6.15;;;2.60;;
17347;SDS011;8791;50.876;4.342;2022-07-29T14:14:45;3.53;;;1.77;;
17347;SDS011;8791;50.876;4.342;2022-07-29T14:17:13;4.15;;;1.42;;
17347;SDS011;8791;50.876;4.342;2022-07-29T14:19:40;4.97;;;1.50;;
17347;SDS011;8791;50.876;4.342;2022-07-29T14:22:07;5.45;;;1.88;;
17347;SDS011;8791;50.876;4.342;2022-07-29T14:24:34;5.85;;;1.70;;
17347;SDS011;8791;50.876;4.342;2022-07-29T14:27:02;6.03;;;2.45;;
17347;SDS011;8791;50.876;4.342;2022-07-29T14:29:29;4.55;;;1.60;;
17347;SDS011;8791;50.876;4.342;2022-07-29T14:31:56;5.10;;;1.60;;
17347;SDS011;8791;50.876;4.342;2022-07-29T14:34:27;4.28;;;1.42;;
17347;SDS011;8791;50.876;4.342;2022-07-29T14:36:54;1.73;;;1.35;;
17347;SDS011;8791;50.876;4.342;2022-07-29T14:39:21;2.97;;;1.58;;
17347;SDS011;8791;50.876;4.342;2022-07-29T14:41:49;4.72;;;1.65;;
17347;SDS011;8791;50.876;4.342;2022-07-29T14:44:16;4.95;;;1.40;;
17347;SDS011;8791;50.876;4.342;2022-07-29T14:46:43;9.15;;;1.67;;
17347;SDS011;8791;50.876;4.342;2022-07-29T14:49:10;7.05;;;2.10;;
17347;SDS011;8791;50.876;4.342;2022-07-29T14:51:38;3.92;;;1.33;;
17347;SDS011;8791;50.876;4.342;2022-07-29T14:54:05;7.93;;;1.60;;
17347;SDS011;8791;50.876;4.342;2022-07-29T14:56:32;3.42;;;1.80;;
17347;SDS011;8791;50.876;4.342;2022-07-29T14:58:59;1.58;;;1.42;;
17347;SDS011;8791;50.876;4.342;2022-07-29T15:01:27;6.22;;;1.90;;
17347;SDS011;8791;50.876;4.342;2022-07-29T15:03:54;3.97;;;1.50;;
17347;SDS011;8791;50.876;4.342;2022-07-29T15:06:21;15.75;;;2.20;;
17347;SDS011;8791;50.876;4.342;2022-07-29T15:08:49;8.77;;;1.70;;
17347;SDS011;8791;50.876;4.342;2022-07-29T15:11:16;8.23;;;1.77;;
17347;SDS011;8791;50.876;4.342;2022-07-29T15:13:43;7.85;;;1.90;;
17347;SDS011;8791;50.876;4.342;2022-07-29T15:16:10;6.20;;;1.92;;
17347;SDS011;8791;50.876;4.342;2022-07-29T15:18:37;4.00;;;1.77;;
17347;SDS011;8791;50.876;4.342;2022-07-29T15:21:05;4.00;;;2.08;;
17347;SDS011;8791;50.876;4.342;2022-07-29T15:23:32;4.65;;;2.22;;
17347;SDS011;8791;50.876;4.342;2022-07-29T15:26:02;9.65;;;2.67;;
17347;SDS011;8791;50.876;4.342;2022-07-29T15:28:30;4.32;;;2.60;;
17347;SDS011;8791;50.876;4.342;2022-07-29T15:30:57;7.05;;;2.63;;
17347;SDS011;8791;50.876;4.342;2022-07-29T15:33:25;3.25;;;2.10;;